createdAt,value
2023-02-14T00:00:02.797Z,2.86
2023-02-14T00:05:11.115Z,2.87
2023-02-14T00:10:15.222Z,2.88
2023-02-14T00:15:24.928Z,2.87
2023-02-14T00:20:28.595Z,2.85
2023-02-14T00:25:34.600Z,2.90
2023-02-14T00:30:37.399Z,2.95
2023-02-14T00:35:40.935Z,3.00
2023-02-14T00:40:45.089Z,2.93
2023-02-14T00:45:48.018Z,3.02
2023-02-14T00:50:50.857Z,3.08
2023-02-14T00:55:54.933Z,3.02
2023-02-14T01:00:58.222Z,2.96
2023-02-14T01:06:01.517Z,2.88
2023-02-14T01:11:13.426Z,2.88
2023-02-14T01:16:18.264Z,2.93
2023-02-14T01:21:23.693Z,2.90
2023-02-14T01:26:28.765Z,2.94
2023-02-14T01:31:33.403Z,2.93
2023-02-14T01:36:38.688Z,2.99
2023-02-14T01:41:44.416Z,2.92
2023-02-14T01:46:47.596Z,2.86
2023-02-14T01:51:53.900Z,2.86
2023-02-14T01:57:01.700Z,2.84
2023-02-14T02:02:05.866Z,2.74
2023-02-14T02:07:13.439Z,2.68
2023-02-14T02:12:17.610Z,2.73
2023-02-14T02:17:30.876Z,2.71
2023-02-14T02:23:12.284Z,2.73
2023-02-14T02:28:50.285Z,2.74
2023-02-14T02:34:21.864Z,2.78
2023-02-14T02:39:40.984Z,2.74
2023-02-14T02:44:51.799Z,2.60
2023-02-14T02:50:18.230Z,2.57
2023-02-14T02:55:29.370Z,2.46
2023-02-14T03:00:32.896Z,2.35
2023-02-14T03:05:36.765Z,2.24
2023-02-14T03:10:42.666Z,2.17
2023-02-14T03:15:58.301Z,2.04
2023-02-14T03:21:13.231Z,2.04
2023-02-14T03:26:19.686Z,2.03
2023-02-14T03:31:31.923Z,2.13
2023-02-14T03:36:43.062Z,2.15
2023-02-14T03:41:51.850Z,2.01
2023-02-14T03:46:59.734Z,1.90
2023-02-14T03:52:05.218Z,1.81
2023-02-14T03:57:18.762Z,1.76
2023-02-14T04:02:26.171Z,1.83
2023-02-14T04:07:28.968Z,1.89
2023-02-14T04:12:38.062Z,1.92
2023-02-14T04:17:58.722Z,1.89
2023-02-14T04:23:03.463Z,1.94
2023-02-14T04:28:07.882Z,1.98
2023-02-14T04:33:10.707Z,1.94
2023-02-14T04:38:13.578Z,1.91
2023-02-14T04:43:17.732Z,1.77
2023-02-14T04:48:20.583Z,1.73
2023-02-14T04:53:23.574Z,1.73
2023-02-14T04:58:27.741Z,1.37
2023-02-14T05:03:30.608Z,0.90
2023-02-14T05:08:33.357Z,0.66
2023-02-14T05:13:37.490Z,0.47
2023-02-14T05:18:40.394Z,0.46
2023-02-14T05:23:43.230Z,0.50
2023-02-14T05:28:47.493Z,0.41
2023-02-14T05:33:50.320Z,0.47
2023-02-14T05:38:53.127Z,0.50
2023-02-14T05:43:57.270Z,0.53
2023-02-14T05:49:00.338Z,0.66
2023-02-14T05:54:03.161Z,0.84
2023-02-14T05:59:07.292Z,0.85
2023-02-14T06:04:10.032Z,0.70
2023-02-14T06:09:12.996Z,0.58
2023-02-14T06:14:17.144Z,0.35
2023-02-14T06:19:20.281Z,0.27
2023-02-14T06:24:23.451Z,0.26
2023-02-14T06:29:27.994Z,0.19
2023-02-14T06:34:30.813Z,0.04
2023-02-14T06:39:33.560Z,0.01
2023-02-14T06:44:37.757Z,0.06
2023-02-14T06:49:40.519Z,-0.03
2023-02-14T06:54:43.285Z,-0.16
2023-02-14T06:59:47.547Z,-0.01
2023-02-14T07:04:50.266Z,0.23
2023-02-14T07:09:52.995Z,0.59
2023-02-14T07:14:57.169Z,0.94
2023-02-14T07:19:59.996Z,1.49
2023-02-14T07:25:02.838Z,2.10
2023-02-14T07:30:10.285Z,2.58
2023-02-14T07:35:14.985Z,2.96
2023-02-14T07:40:18.393Z,3.65
2023-02-14T07:45:23.052Z,4.15
2023-02-14T07:50:25.841Z,4.17
2023-02-14T07:55:28.616Z,4.27
2023-02-14T08:00:32.843Z,4.42
2023-02-14T08:05:36.599Z,4.57
2023-02-14T08:10:39.359Z,4.99
2023-02-14T08:16:01.231Z,5.63
2023-02-14T08:21:05.318Z,6.25
2023-02-14T08:26:08.511Z,6.46
2023-02-14T08:31:12.964Z,6.80
2023-02-14T08:36:17.729Z,7.14
2023-02-14T08:41:20.528Z,7.65
2023-02-14T08:46:25.139Z,7.89
2023-02-14T08:51:27.961Z,8.02
2023-02-14T08:56:30.733Z,8.09
2023-02-14T09:01:36.411Z,8.24
2023-02-14T09:06:39.886Z,8.82
2023-02-14T09:11:42.619Z,8.94
2023-02-14T09:16:46.796Z,9.06
2023-02-14T09:21:49.637Z,9.24
2023-02-14T09:26:52.410Z,9.45
2023-02-14T09:31:58.148Z,9.79
2023-02-14T09:37:18.761Z,10.38
2023-02-14T09:42:37.371Z,10.01
2023-02-14T09:47:47.025Z,10.35
2023-02-14T09:52:53.284Z,10.73
2023-02-14T09:58:07.370Z,11.14
2023-02-14T10:03:34.499Z,11.34
2023-02-14T10:08:51.249Z,11.79
2023-02-14T10:13:57.678Z,12.06
2023-02-14T10:19:04.950Z,12.18
2023-02-14T10:24:14.696Z,12.22
2023-02-14T10:29:19.676Z,12.71
2023-02-14T10:34:32.170Z,13.12
2023-02-14T10:39:51.289Z,12.92
2023-02-14T10:45:06.065Z,13.49
2023-02-14T10:50:19.104Z,13.71
2023-02-14T10:55:32.414Z,13.98
2023-02-14T11:00:38.828Z,14.40
2023-02-14T11:05:46.677Z,14.82
2023-02-14T11:10:50.147Z,16.40
2023-02-14T11:15:54.125Z,17.20
2023-02-14T11:21:07.682Z,17.88
2023-02-14T11:26:17.369Z,18.33
2023-02-14T11:31:32.321Z,18.56
2023-02-14T11:36:42.018Z,18.97
2023-02-14T11:41:49.680Z,18.64
2023-02-14T11:46:54.540Z,19.27
2023-02-14T11:52:01.482Z,19.27
2023-02-14T11:57:07.482Z,19.32
2023-02-14T12:02:25.271Z,20.33
2023-02-14T12:07:32.705Z,20.87
2023-02-14T12:12:36.803Z,21.02
2023-02-14T12:17:40.862Z,21.17
2023-02-14T12:28:30.741Z,20.95
2023-02-14T12:40:17.445Z,20.32
2023-02-14T12:45:24.757Z,19.67
2023-02-14T12:50:38.131Z,19.67
2023-02-14T12:55:53.108Z,19.64
2023-02-14T13:01:08.599Z,19.72
2023-02-14T13:06:19.665Z,19.56
2023-02-14T13:11:32.772Z,19.57
2023-02-14T13:16:45.163Z,19.72
2023-02-14T13:21:50.101Z,19.80
2023-02-14T13:26:57.723Z,19.35
2023-02-14T13:32:04.081Z,19.60
2023-02-14T13:37:11.399Z,19.32
2023-02-14T13:42:34.418Z,18.73
2023-02-14T13:47:38.604Z,18.97
2023-02-14T13:52:43.409Z,19.17
2023-02-14T13:57:46.340Z,19.15
2023-02-14T14:02:52.388Z,18.95
2023-02-14T14:08:18.673Z,18.91
2023-02-14T14:13:55.009Z,18.73
2023-02-14T14:19:01.373Z,18.89
2023-02-14T14:24:13.688Z,18.72
2023-02-14T14:29:21.474Z,18.40
2023-02-14T14:34:27.146Z,18.34
2023-02-14T14:39:32.187Z,18.14
2023-02-14T14:44:36.343Z,18.24
2023-02-14T14:49:40.423Z,18.22
2023-02-14T14:54:43.459Z,18.02
2023-02-14T14:59:49.230Z,17.54
2023-02-14T15:04:53.598Z,17.33
2023-02-14T15:09:56.305Z,17.02
2023-02-14T15:14:59.280Z,16.81
2023-02-14T15:20:08.030Z,16.50
2023-02-14T15:25:13.761Z,16.57
2023-02-14T15:30:26.400Z,16.32
2023-02-14T15:35:32.920Z,15.83
2023-02-14T15:40:38.710Z,15.18
2023-02-14T15:45:42.727Z,14.69
2023-02-14T15:50:50.924Z,14.29
2023-02-14T15:55:54.266Z,13.86
2023-02-14T16:00:57.505Z,13.33
2023-02-14T16:06:01.839Z,12.75
2023-02-14T16:11:09.727Z,12.28
2023-02-14T16:16:14.370Z,11.92
2023-02-14T16:21:23.587Z,11.65
2023-02-14T16:26:26.401Z,11.43
2023-02-14T16:31:29.603Z,11.14
2023-02-14T16:36:34.938Z,10.92
2023-02-14T16:41:37.912Z,10.72
2023-02-14T16:46:43.048Z,10.60
2023-02-14T16:51:48.622Z,10.44
2023-02-14T16:56:54.728Z,10.28
2023-02-14T17:01:58.486Z,10.04
2023-02-14T17:07:05.832Z,9.78
2023-02-14T17:12:13.270Z,9.63
2023-02-14T17:17:16.510Z,9.46
2023-02-14T17:22:21.056Z,9.32
2023-02-14T17:27:23.917Z,9.25
2023-02-14T17:32:26.824Z,9.08
2023-02-14T17:37:31.851Z,8.94
2023-02-14T17:42:35.453Z,8.82
2023-02-14T17:47:39.717Z,8.80
2023-02-14T17:52:43.945Z,8.75
2023-02-14T17:57:46.692Z,8.66
2023-02-14T18:02:49.642Z,8.51
2023-02-14T18:07:53.938Z,8.43
2023-02-14T18:12:56.713Z,8.38
2023-02-14T18:17:59.579Z,8.28
2023-02-14T18:23:07.160Z,8.21
2023-02-14T18:28:09.973Z,8.10
2023-02-14T18:33:12.824Z,8.08
2023-02-14T18:38:17.067Z,7.99
2023-02-14T18:43:19.887Z,7.87
2023-02-14T18:48:22.844Z,7.83
2023-02-14T18:53:26.990Z,7.78
2023-02-14T18:58:29.786Z,7.68
2023-02-14T19:03:32.580Z,7.67
2023-02-14T19:08:38.395Z,7.59
2023-02-14T19:13:45.643Z,7.51
2023-02-14T19:18:49.666Z,7.45
2023-02-14T19:23:56.484Z,7.33
2023-02-14T19:29:00.726Z,7.12
2023-02-14T19:34:04.675Z,7.08
2023-02-14T19:39:08.875Z,6.99
2023-02-14T19:44:13.779Z,6.88
2023-02-14T19:49:19.563Z,6.86
2023-02-14T19:54:25.586Z,6.77
2023-02-14T19:59:28.414Z,6.65
2023-02-14T20:04:31.475Z,6.57
2023-02-14T20:09:35.706Z,6.44
2023-02-14T20:14:50.987Z,6.31
2023-02-14T20:19:55.041Z,6.30
2023-02-14T20:24:59.334Z,6.24
2023-02-14T20:30:02.172Z,6.12
2023-02-14T20:35:05.222Z,6.06
2023-02-14T20:40:11.796Z,5.93
2023-02-14T20:45:14.602Z,5.80
2023-02-14T20:50:17.963Z,5.80
2023-02-14T20:55:22.232Z,5.64
2023-02-14T21:00:25.735Z,5.63
2023-02-14T21:05:28.810Z,5.58
2023-02-14T21:10:33.039Z,5.55
2023-02-14T21:15:35.877Z,5.38
2023-02-14T21:20:38.785Z,5.26
2023-02-14T21:25:42.962Z,5.18
2023-02-14T21:30:45.862Z,5.10
2023-02-14T21:35:48.756Z,4.96
2023-02-14T21:41:01.310Z,4.91
2023-02-14T21:51:34.482Z,4.80
2023-02-14T21:56:39.849Z,4.74
2023-02-14T22:01:43.436Z,4.75
2023-02-14T22:06:47.189Z,4.53
2023-02-14T22:11:51.317Z,4.60
2023-02-14T22:16:54.035Z,4.54
2023-02-14T22:21:56.779Z,4.49
2023-02-14T22:27:00.974Z,4.41
2023-02-14T22:32:03.908Z,4.28
2023-02-14T22:37:07.110Z,4.14
2023-02-14T22:42:11.226Z,4.13
2023-02-14T22:47:13.999Z,4.01
2023-02-14T22:52:17.586Z,4.08
2023-02-14T22:57:21.731Z,3.94
2023-02-14T23:02:24.533Z,3.98
2023-02-14T23:07:27.333Z,3.95
2023-02-14T23:12:48.988Z,3.85
2023-02-14T23:18:09.494Z,3.72
2023-02-14T23:23:12.216Z,3.62
2023-02-14T23:28:16.380Z,3.50
2023-02-14T23:33:19.475Z,3.48
2023-02-14T23:38:22.509Z,3.49
2023-02-14T23:43:26.756Z,3.27
2023-02-14T23:48:29.781Z,3.14
2023-02-14T23:53:32.534Z,3.18
2023-02-14T23:58:36.642Z,3.11
